Time;durP1;ratioP1;P1;durP2;ratioP2;P2;SDS_P1;SDS_P2;PMS_P1;PMS_P2;Temp;Humidity;BMP_temperature;BMP_pressure;BME280_temperature;BME280_humidity;BME280_pressure;Samples;Min_cycle;Max_cycle;Signal;HPM_P1;HPM_P2
2023/12/19 00:00:26;;;;;;;0.00;0.00;;;;;;;-0.37;100.00;146162.13;5024305;28;20223;-56
2023/12/19 00:02:52;;;;;;;0.00;0.00;;;;;;;-0.32;100.00;146173.25;5026436;28;20350;-56
2023/12/19 00:05:19;;;;;;;0.00;0.00;;;;;;;-0.30;100.00;146179.41;5023248;28;20236;-54
2023/12/19 00:07:46;;;;;;;0.00;0.00;;;;;;;-0.27;100.00;146185.63;5026785;28;20231;-54
2023/12/19 00:10:13;;;;;;;0.00;0.00;;;;;;;-0.33;100.00;146170.78;5022437;28;20325;-57
2023/12/19 00:12:43;;;;;;;0.00;0.00;;;;;;;-0.42;100.00;146149.75;5026539;28;20238;-56
2023/12/19 00:15:10;;;;;;;0.00;0.00;;;;;;;-0.35;100.00;146165.84;5023656;28;20563;-55
2023/12/19 00:17:39;;;;;;;0.00;0.00;;;;;;;-0.41;100.00;146151.00;5026945;28;20229;-56
2023/12/19 00:20:06;;;;;;;0.00;0.00;;;;;;;-0.48;100.00;146136.19;5023764;28;20223;-54
2023/12/19 00:22:33;;;;;;;0.00;0.00;;;;;;;-0.57;100.00;146112.72;5025817;28;20239;-54
2023/12/19 00:24:59;;;;;;;0.00;0.00;;;;;;;-0.60;100.00;146107.78;5026068;28;20230;-56
2023/12/19 00:27:26;;;;;;;0.00;0.00;;;;;;;-0.39;100.00;146157.19;5023372;28;20235;-55
2023/12/19 00:29:54;;;;;;;0.00;0.00;;;;;;;-0.48;100.00;146134.94;5025792;28;20322;-57
2023/12/19 00:32:20;;;;;;;0.00;0.00;;;;;;;-0.62;100.00;146101.59;5022542;28;20318;-56
2023/12/19 00:34:47;;;;;;;0.00;0.00;;;;;;;-0.63;100.00;146099.13;5025875;28;20223;-54
2023/12/19 00:37:13;;;;;;;0.00;0.00;;;;;;;-0.56;100.00;146115.19;5023328;28;20258;-56
2023/12/19 00:39:40;;;;;;;0.00;0.00;;;;;;;-0.62;100.00;146102.84;5025986;28;20234;-57
2023/12/19 00:42:07;;;;;;;0.00;0.00;;;;;;;-0.66;100.00;146092.97;5023175;28;20234;-55
2023/12/19 00:44:36;;;;;;;0.00;0.00;;;;;;;-0.72;100.00;146076.88;5025175;28;20710;-57
2023/12/19 00:47:04;;;;;;;0.00;0.00;;;;;;;-0.61;100.00;146104.06;5023296;28;20311;-57
2023/12/19 00:49:31;;;;;;;0.00;0.00;;;;;;;-0.21;100.00;146200.44;5023696;28;20230;-55
2023/12/19 00:51:58;;;;;;;0.00;0.00;;;;;;;0.29;100.00;146319.09;5024883;28;20242;-55
2023/12/19 00:54:24;;;;;;;0.00;0.00;;;;;;;0.37;100.00;146337.66;5023212;28;20234;-54
2023/12/19 00:56:51;;;;;;;0.00;0.00;;;;;;;0.47;100.00;146361.13;5025475;28;20230;-56
2023/12/19 00:59:18;;;;;;;0.00;0.00;;;;;;;0.38;100.00;146341.34;5023024;28;20720;-54
2023/12/19 01:01:44;;;;;;;0.00;0.00;;;;;;;0.34;100.00;146331.44;5025882;28;20227;-54
2023/12/19 01:04:12;;;;;;;0.00;0.00;;;;;;;0.22;100.00;146303.03;5021692;28;20230;-57
2023/12/19 01:06:39;;;;;;;0.00;0.00;;;;;;;0.10;100.00;146273.38;5024424;28;21130;-57
2023/12/19 01:09:06;;;;;;;0.00;0.00;;;;;;;-0.08;100.00;146231.34;5020178;28;20260;-57
2023/12/19 01:11:32;;;;;;;0.00;0.00;;;;;;;-0.25;100.00;146190.56;5024053;28;20240;-57
2023/12/19 01:13:59;;;;;;;0.00;0.00;;;;;;;-0.38;100.00;146158.44;5024261;28;20235;-55
2023/12/19 01:16:25;;;;;;;0.00;0.00;;;;;;;-0.49;100.00;146132.47;5022355;28;20228;-57
2023/12/19 01:18:52;;;;;;;0.00;0.00;;;;;;;-0.53;100.00;146123.84;5024648;28;20234;-55
2023/12/19 01:21:20;;;;;;;0.00;0.00;;;;;;;-0.52;100.00;146125.03;5021745;28;20599;-57
2023/12/19 01:23:46;;;;;;;0.00;0.00;;;;;;;-0.54;100.00;146120.16;5024301;28;20230;-54
2023/12/19 01:26:13;;;;;;;0.00;0.00;;;;;;;-0.60;100.00;146107.78;5021248;28;20587;-57
2023/12/19 01:28:40;;;;;;;0.00;0.00;;;;;;;-0.71;100.00;146079.34;5022990;28;20628;-57
2023/12/19 01:31:07;;;;;;;0.00;0.00;;;;;;;-0.65;100.00;146094.19;5021933;28;20246;-56
2023/12/19 01:33:33;;;;;;;0.00;0.00;;;;;;;-0.73;100.00;146074.41;5024976;28;20735;-54
2023/12/19 01:36:00;;;;;;;0.00;0.00;;;;;;;-0.76;100.00;146069.47;5025143;28;20234;-56
2023/12/19 01:38:28;;;;;;;0.00;0.00;;;;;;;-0.77;100.00;146067.00;5022903;28;20231;-53
2023/12/19 01:40:54;;;;;;;0.00;0.00;;;;;;;-0.81;100.00;146055.91;5024881;28;20227;-54
2023/12/19 01:43:22;;;;;;;0.00;0.00;;;;;;;-0.93;100.00;146027.47;5021920;28;20576;-55
2023/12/19 01:45:50;;;;;;;0.00;0.00;;;;;;;-1.12;100.00;145983.03;5024390;28;20234;-54
2023/12/19 01:48:18;;;;;;;0.00;0.00;;;;;;;-1.25;100.00;145950.94;5021426;28;20235;-57
2023/12/19 01:50:46;;;;;;;0.00;0.00;;;;;;;-1.30;100.00;145938.56;5024098;28;20302;-54
2023/12/19 01:53:13;;;;;;;0.00;0.00;;;;;;;-1.33;100.00;145932.38;5009645;28;20227;-57
2023/12/19 01:55:41;;;;;;;0.00;0.00;;;;;;;-1.41;100.00;145912.63;5022245;28;20262;-55
2023/12/19 01:58:09;;;;;;;0.00;0.00;;;;;;;-1.46;100.00;145901.53;5020631;28;20258;-55
2023/12/19 02:00:37;;;;;;;0.00;0.00;;;;;;;-1.37;100.00;145922.50;5024673;28;20729;-54
2023/12/19 02:03:05;;;;;;;0.00;0.00;;;;;;;-1.41;100.00;145912.63;5021432;28;20296;-56
2023/12/19 02:05:33;;;;;;;0.00;0.00;;;;;;;-1.46;100.00;145901.53;5024878;28;20317;-55
2023/12/19 02:08:00;;;;;;;0.00;0.00;;;;;;;-1.42;100.00;145910.16;5023926;28;20231;-53
2023/12/19 02:10:27;;;;;;;0.00;0.00;;;;;;;-1.41;100.00;145912.63;5021880;28;20215;-56
2023/12/19 02:12:55;;;;;;;0.00;0.00;;;;;;;-1.15;100.00;145975.63;5023838;28;20259;-55
2023/12/19 02:15:22;;;;;;;0.00;0.00;;;;;;;-1.16;100.00;145973.16;5020466;28;20265;-57
2023/12/19 02:17:48;;;;;;;0.00;0.00;;;;;;;-1.08;100.00;145991.66;5024280;28;20228;-55
2023/12/19 02:20:15;;;;;;;0.00;0.00;;;;;;;-1.18;100.00;145968.22;5021270;28;20238;-56
2023/12/19 02:22:42;;;;;;;0.00;0.00;;;;;;;-1.28;100.00;145944.72;5024418;28;20238;-57
2023/12/19 02:25:10;;;;;;;0.00;0.00;;;;;;;-1.36;100.00;145926.22;5021272;28;20566;-56
2023/12/19 02:27:37;;;;;;;0.00;0.00;;;;;;;-1.43;100.00;145907.69;5024261;28;20253;-54
2023/12/19 02:30:04;;;;;;;0.00;0.00;;;;;;;-1.54;100.00;145881.78;5021452;28;20245;-56
2023/12/19 02:32:33;;;;;;;0.00;0.00;;;;;;;-1.55;100.00;145880.50;5024104;28;20711;-55
2023/12/19 02:35:00;;;;;;;0.00;0.00;;;;;;;-1.55;100.00;145880.50;5023771;28;20312;-57
2023/12/19 02:37:27;;;;;;;0.00;0.00;;;;;;;-1.55;100.00;145879.31;5021738;28;20242;-57
2023/12/19 02:39:54;;;;;;;0.00;0.00;;;;;;;-1.54;100.00;145881.78;5022763;28;20574;-57
2023/12/19 02:42:21;;;;;;;0.00;0.00;;;;;;;-1.53;100.00;145884.25;5019796;28;20242;-57
2023/12/19 02:44:48;;;;;;;0.00;0.00;;;;;;;-1.63;100.00;145860.81;5023623;28;20223;-54
2023/12/19 02:47:15;;;;;;;0.00;0.00;;;;;;;-1.67;100.00;145852.16;5021276;28;20322;-56
2023/12/19 02:49:41;;;;;;;0.00;0.00;;;;;;;-1.52;100.00;145886.72;5024242;28;20247;-55
2023/12/19 02:52:08;;;;;;;0.00;0.00;;;;;;;-1.26;100.00;145948.47;5021129;28;20259;-55
2023/12/19 02:54:34;;;;;;;0.00;0.00;;;;;;;-1.08;100.00;145992.91;5024298;28;20234;-55
2023/12/19 02:57:01;;;;;;;0.00;0.00;;;;;;;-1.00;100.00;146010.16;5021943;28;20225;-54
2023/12/19 02:59:34;;;;;;;0.00;0.00;;;;;;;-0.78;100.00;146063.31;5021439;28;20241;-56
2023/12/19 03:02:00;;;;;;;0.00;0.00;;;;;;;-0.73;100.00;146075.66;5019774;28;20226;-56
2023/12/19 03:04:27;;;;;;;0.00;0.00;;;;;;;-0.71;100.00;146079.34;5020492;28;20240;-55
2023/12/19 03:06:53;;;;;;;0.00;0.00;;;;;;;-0.72;100.00;146076.88;5023573;28;20232;-53
2023/12/19 03:09:20;;;;;;;0.00;0.00;;;;;;;-0.89;100.00;146037.34;5020051;28;20239;-54
2023/12/19 03:11:59;;;;;;;0.00;0.00;;;;;;;-1.00;100.00;146010.16;5023361;28;20698;-56
2023/12/19 03:14:26;;;;;;;0.00;0.00;;;;;;;-1.12;100.00;145981.78;5019762;28;20334;-57
2023/12/19 03:16:54;;;;;;;0.00;0.00;;;;;;;-1.14;100.00;145978.09;5023831;28;20239;-54
2023/12/19 03:19:21;;;;;;;0.00;0.00;;;;;;;-1.24;100.00;145953.41;5021077;28;20231;-56
2023/12/19 03:21:50;;;;;;;0.00;0.00;;;;;;;-1.26;100.00;145949.66;5022881;28;20741;-56
2023/12/19 03:24:16;;;;;;;0.00;0.00;;;;;;;-1.38;100.00;145921.28;5020020;28;20817;-54
2023/12/19 03:26:43;;;;;;;0.00;0.00;;;;;;;-1.40;100.00;145916.34;5023832;28;20228;-57
2023/12/19 03:29:09;;;;;;;0.00;0.00;;;;;;;-1.42;100.00;145911.41;5020461;28;20261;-54
2023/12/19 03:31:36;;;;;;;0.00;0.00;;;;;;;-1.53;100.00;145884.25;5022660;28;20721;-54
2023/12/19 03:34:05;;;;;;;0.00;0.00;;;;;;;-1.68;100.00;145848.47;5019460;28;20222;-55
2023/12/19 03:36:31;;;;;;;0.00;0.00;;;;;;;-1.81;100.00;145817.56;5025630;28;20726;-56
2023/12/19 03:38:58;;;;;;;0.00;0.00;;;;;;;-1.78;100.00;145824.97;5026406;28;20228;-56
2023/12/19 03:41:24;;;;;;;0.00;0.00;;;;;;;-1.81;100.00;145817.56;5022080;28;20314;-54
2023/12/19 03:43:51;;;;;;;0.00;0.00;;;;;;;-1.86;100.00;145805.22;5024613;28;20234;-56
2023/12/19 03:46:18;;;;;;;0.00;0.00;;;;;;;-1.95;100.00;145785.47;5023703;28;20235;-56
2023/12/19 03:48:45;;;;;;;0.00;0.00;;;;;;;-2.03;100.00;145765.72;5026932;28;20235;-55
2023/12/19 03:51:14;;;;;;;0.00;0.00;;;;;;;-2.08;100.00;145753.38;5022342;28;20242;-55
2023/12/19 03:53:40;;;;;;;0.00;0.00;;;;;;;-2.04;100.00;145762.06;5018621;28;21204;-53
2023/12/19 03:56:08;;;;;;;0.00;0.00;;;;;;;-2.11;100.00;145745.97;5024063;28;20231;-56
2023/12/19 03:58:34;;;;;;;0.00;0.00;;;;;;;-2.17;100.00;145732.44;5026624;28;20235;-53
2023/12/19 04:01:02;;;;;;;0.00;0.00;;;;;;;-2.19;100.00;145727.50;5026735;28;20687;-54
2023/12/19 04:03:28;;;;;;;0.00;0.00;;;;;;;-2.23;100.00;145718.88;5024255;28;20229;-56
2023/12/19 04:05:55;;;;;;;0.00;0.00;;;;;;;-2.34;100.00;145691.72;5023746;28;21876;-54
2023/12/19 04:08:23;;;;;;;0.00;0.00;;;;;;;-2.33;100.00;145694.19;5011144;28;20245;-55
2023/12/19 04:10:50;;;;;;;0.00;0.00;;;;;;;-2.32;100.00;145696.66;5006298;28;20216;-55
2023/12/19 04:13:15;;;;;;;0.00;0.00;;;;;;;-2.33;100.00;145694.19;5021263;28;20235;-55
2023/12/19 04:15:42;;;;;;;0.00;0.00;;;;;;;-2.33;100.00;145694.19;5023895;28;20231;-54
2023/12/19 04:18:11;;;;;;;0.00;0.00;;;;;;;-2.33;100.00;145694.19;5018850;28;20717;-54
2023/12/19 04:20:39;;;;;;;0.00;0.00;;;;;;;-2.38;100.00;145681.84;5023345;28;20584;-54
2023/12/19 04:23:05;;;;;;;0.00;0.00;;;;;;;-1.95;100.00;145784.28;5019130;28;20678;-56
2023/12/19 04:25:33;;;;;;;0.00;0.00;;;;;;;-1.43;100.00;145908.94;5025004;28;20223;-55
2023/12/19 04:28:00;;;;;;;0.00;0.00;;;;;;;-1.19;100.00;145966.97;5025718;28;20244;-54
2023/12/19 04:33:05;;;;;;;0.00;0.00;;;;;;;-1.02;100.00;146005.22;5015021;28;20259;-56
2023/12/19 04:35:32;;;;;;;0.00;0.00;;;;;;;-0.89;100.00;146037.34;5007300;28;20765;-53
2023/12/19 04:37:58;;;;;;;0.00;0.00;;;;;;;-1.12;100.00;145983.03;5025391;28;20218;-54
2023/12/19 04:40:25;;;;;;;0.00;0.00;;;;;;;-1.33;100.00;145932.38;5021910;28;20242;-53
2023/12/19 04:42:53;;;;;;;0.00;0.00;;;;;;;-1.49;100.00;145894.13;5024607;28;20243;-55
2023/12/19 04:45:19;;;;;;;0.00;0.00;;;;;;;-1.65;100.00;145855.88;5031837;23;20234;-54
2023/12/19 04:47:46;;;;;;;0.00;0.00;;;;;;;-1.74;100.00;145834.84;5006675;28;20242;-53
2023/12/19 04:50:12;;;;;;;0.00;0.00;;;;;;;-1.82;100.00;145816.38;5022487;28;20737;-55
2023/12/19 04:52:39;;;;;;;0.00;0.00;;;;;;;-1.82;100.00;145816.38;5024844;28;20686;-53
2023/12/19 04:55:06;;;;;;;0.00;0.00;;;;;;;-1.88;100.00;145800.28;5022547;28;20231;-55
2023/12/19 04:57:33;;;;;;;0.00;0.00;;;;;;;-1.86;100.00;145805.22;5026455;28;20242;-55
2023/12/19 05:00:00;;;;;;;0.00;0.00;;;;;;;-1.87;100.00;145804.03;5024927;28;20231;-55
2023/12/19 05:02:27;;;;;;;0.00;0.00;;;;;;;-1.70;100.00;145843.53;5023681;28;20683;-55
2023/12/19 05:04:54;;;;;;;0.00;0.00;;;;;;;-1.59;100.00;145869.44;5025626;28;20245;-55
2023/12/19 05:07:20;;;;;;;0.00;0.00;;;;;;;-1.23;100.00;145955.88;5022910;28;20575;-56
2023/12/19 05:09:47;;;;;;;0.00;0.00;;;;;;;-1.21;100.00;145962.03;5024795;28;20234;-56
2023/12/19 05:12:13;;;;;;;0.00;0.00;;;;;;;-1.25;100.00;145950.94;5021973;28;20245;-55
2023/12/19 05:14:39;;;;;;;0.00;0.00;;;;;;;-1.41;100.00;145913.88;5007196;28;20275;-54
2023/12/19 05:17:07;;;;;;;0.00;0.00;;;;;;;-1.49;100.00;145895.34;5022598;28;20702;-56
2023/12/19 05:19:34;;;;;;;0.00;0.00;;;;;;;-1.57;100.00;145875.56;5025565;28;20250;-55
2023/12/19 05:22:00;;;;;;;0.00;0.00;;;;;;;-1.67;100.00;145852.16;5025160;28;20238;-56
2023/12/19 05:24:32;;;;;;;0.00;0.00;;;;;;;-1.74;100.00;145834.84;5022427;28;20280;-56
2023/12/19 05:26:59;;;;;;;0.00;0.00;;;;;;;-1.79;100.00;145823.78;5025119;28;20240;-55
2023/12/19 05:29:26;;;;;;;0.00;0.00;;;;;;;-1.84;100.00;145811.44;5022394;28;20230;-55
2023/12/19 05:31:52;;;;;;;0.00;0.00;;;;;;;-1.89;100.00;145799.09;5024300;28;20725;-55
2023/12/19 05:34:22;;;;;;;0.00;0.00;;;;;;;-1.90;100.00;145796.63;5021438;28;20572;-55
2023/12/19 05:36:48;;;;;;;0.00;0.00;;;;;;;-1.85;100.00;145808.97;5025161;28;20223;-54
2023/12/19 05:39:17;;;;;;;0.00;0.00;;;;;;;-1.91;100.00;145792.88;5020088;28;20706;-55
2023/12/19 05:41:43;;;;;;;0.00;0.00;;;;;;;-1.88;100.00;145801.56;5025042;28;20236;-54
2023/12/19 05:44:11;;;;;;;0.00;0.00;;;;;;;-1.79;100.00;145822.50;5022027;28;20227;-53
2023/12/19 05:46:38;;;;;;;0.00;0.00;;;;;;;-1.79;100.00;145823.78;5024917;28;20219;-55
2023/12/19 05:49:05;;;;;;;0.00;0.00;;;;;;;-1.71;100.00;145841.06;5022061;28;20240;-54
2023/12/19 05:51:33;;;;;;;0.00;0.00;;;;;;;-1.60;100.00;145868.22;5024757;28;20250;-54
2023/12/19 05:53:59;;;;;;;0.00;0.00;;;;;;;-1.59;100.00;145870.63;5024669;28;20227;-55
2023/12/19 05:56:26;;;;;;;0.00;0.00;;;;;;;-1.54;100.00;145881.78;5021345;28;20250;-54
2023/12/19 05:58:53;;;;;;;0.00;0.00;;;;;;;-1.46;100.00;145900.28;5024724;28;20239;-55
2023/12/19 06:01:19;;;;;;;0.00;0.00;;;;;;;-1.40;100.00;145916.34;5003992;28;20666;-53
2023/12/19 06:03:46;;;;;;;0.00;0.00;;;;;;;-1.32;100.00;145934.84;5024860;28;20224;-55
2023/12/19 06:06:14;;;;;;;0.00;0.00;;;;;;;-1.25;100.00;145950.94;5020501;28;20230;-55
2023/12/19 06:08:43;;;;;;;0.00;0.00;;;;;;;-1.15;100.00;145974.38;5006953;28;20235;-54
2023/12/19 06:11:09;;;;;;;0.00;0.00;;;;;;;-1.06;100.00;145997.81;5021085;28;20281;-54
2023/12/19 06:13:36;;;;;;;0.00;0.00;;;;;;;-0.98;100.00;146016.38;5024373;28;20224;-54
2023/12/19 06:16:03;;;;;;;0.00;0.00;;;;;;;-0.93;100.00;146028.72;5021143;28;20698;-56
2023/12/19 06:18:30;;;;;;;0.00;0.00;;;;;;;-0.85;100.00;146046.00;5024421;28;20781;-56
2023/12/19 06:20:56;;;;;;;0.00;0.00;;;;;;;-0.80;100.00;146059.59;5024889;28;20230;-56
2023/12/19 06:23:23;;;;;;;0.00;0.00;;;;;;;-0.70;100.00;146081.81;5021010;28;20231;-56
2023/12/19 06:25:51;;;;;;;0.00;0.00;;;;;;;-0.71;100.00;146080.59;5024908;28;20239;-56
2023/12/19 06:28:18;;;;;;;0.00;0.00;;;;;;;-0.66;100.00;146091.72;5022003;28;20253;-56
2023/12/19 06:30:44;;;;;;;0.00;0.00;;;;;;;-0.61;100.00;146104.06;5024962;28;20239;-55
2023/12/19 06:33:11;;;;;;;0.00;0.00;;;;;;;-0.60;100.00;146106.53;5021085;28;20216;-56
2023/12/19 06:35:40;;;;;;;0.00;0.00;;;;;;;-0.62;100.00;146102.84;5023854;28;20235;-55
2023/12/19 06:38:06;;;;;;;0.00;0.00;;;;;;;-0.65;100.00;146094.19;5003824;28;20250;-55
2023/12/19 06:40:33;;;;;;;0.00;0.00;;;;;;;-0.68;100.00;146086.75;5024501;28;20227;-56
2023/12/19 06:43:03;;;;;;;0.00;0.00;;;;;;;-0.76;100.00;146069.47;5024011;28;20234;-56
2023/12/19 06:45:29;;;;;;;0.00;0.00;;;;;;;-0.86;100.00;146044.75;5021062;28;20231;-55
2023/12/19 06:47:56;;;;;;;0.00;0.00;;;;;;;-0.95;100.00;146022.53;5024231;28;20219;-54
2023/12/19 06:50:24;;;;;;;0.00;0.00;;;;;;;-0.98;100.00;146015.09;5021055;28;20240;-51
2023/12/19 06:52:50;;;;;;;0.00;0.00;;;;;;;-1.14;100.00;145976.84;5023494;28;20263;-55
2023/12/19 06:55:17;;;;;;;0.00;0.00;;;;;;;-1.27;100.00;145947.19;5021559;28;20225;-55
2023/12/19 06:57:43;;;;;;;0.00;0.00;;;;;;;-1.33;100.00;145932.38;5024145;28;20251;-56
2023/12/19 07:00:13;;;;;;;0.00;0.00;;;;;;;-1.39;100.00;145918.81;5021295;28;20234;-54
2023/12/19 07:02:43;;;;;;;0.00;0.00;;;;;;;-1.40;100.00;145916.34;5024193;28;20328;-55
2023/12/19 07:05:10;;;;;;;0.00;0.00;;;;;;;-1.35;100.00;145927.44;5021232;28;20235;-54
2023/12/19 07:07:37;;;;;;;0.00;0.00;;;;;;;-1.38;100.00;145921.28;5025135;28;20231;-54
2023/12/19 07:10:04;;;;;;;0.00;0.00;;;;;;;-1.38;100.00;145921.28;5024550;28;20323;-54
2023/12/19 07:12:31;;;;;;;0.00;0.00;;;;;;;-1.42;100.00;145910.16;5027201;28;20234;-54
2023/12/19 07:14:57;;;;;;;0.00;0.00;;;;;;;-1.52;100.00;145886.72;5027548;28;20260;-56
2023/12/19 07:17:25;;;;;;;0.00;0.00;;;;;;;-1.48;100.00;145896.59;5025016;28;20716;-55
2023/12/19 07:19:52;;;;;;;0.00;0.00;;;;;;;-1.55;100.00;145879.31;5027309;28;20227;-55
2023/12/19 07:22:18;;;;;;;0.00;0.00;;;;;;;-1.60;100.00;145866.97;5024515;28;20238;-53
2023/12/19 07:24:46;;;;;;;0.00;0.00;;;;;;;-1.53;100.00;145885.47;5027799;28;20313;-53
2023/12/19 07:27:12;;;;;;;0.00;0.00;;;;;;;-1.51;100.00;145889.19;5024581;28;20230;-54
2023/12/19 07:29:39;;;;;;;0.00;0.00;;;;;;;-1.42;100.00;145911.41;5027025;28;20234;-53
2023/12/19 07:32:07;;;;;;;0.07;0.07;;;;;;;-1.35;100.00;145927.44;5024057;28;20728;-54
2023/12/19 07:34:35;;;;;;;0.00;0.00;;;;;;;-1.29;100.00;145942.25;5028023;28;20249;-55
2023/12/19 07:37:01;;;;;;;0.00;0.00;;;;;;;-1.20;100.00;145964.50;5026815;28;20225;-54
2023/12/19 07:39:32;;;;;;;0.00;0.00;;;;;;;-1.10;100.00;145986.72;5025177;28;20238;-55
2023/12/19 07:41:59;;;;;;;0.00;0.00;;;;;;;-0.98;100.00;146016.38;5027329;28;20567;-54
2023/12/19 07:44:25;;;;;;;0.00;0.00;;;;;;;-0.86;100.00;146044.75;5024150;28;20226;-54
2023/12/19 07:46:52;;;;;;;0.00;0.00;;;;;;;-0.75;100.00;146071.94;5027171;28;20596;-53
2023/12/19 07:49:19;;;;;;;0.00;0.00;;;;;;;-0.67;100.00;146089.22;5024347;28;20239;-53
2023/12/19 07:51:47;;;;;;;0.00;0.00;;;;;;;-0.57;100.00;146113.94;5027248;28;20246;-54
2023/12/19 07:54:13;;;;;;;0.10;0.10;;;;;;;-0.52;100.00;146126.31;5023448;28;20219;-53
2023/12/19 07:56:43;;;;;;;0.00;0.00;;;;;;;-0.41;100.00;146151.00;5027369;28;20249;-53
2023/12/19 07:59:10;;;;;;;0.00;0.00;;;;;;;-0.41;100.00;146152.22;5022254;28;20227;-55
2023/12/19 08:01:37;;;;;;;0.00;0.00;;;;;;;-0.33;100.00;146170.78;5026895;28;20239;-53
2023/12/19 08:04:04;;;;;;;0.00;0.00;;;;;;;-0.31;100.00;146176.94;5023881;28;20350;-53
2023/12/19 08:06:30;;;;;;;0.00;0.00;;;;;;;-0.40;100.00;146153.50;5027117;28;20234;-53
2023/12/19 08:08:58;;;;;;;0.00;0.00;;;;;;;-0.42;100.00;146148.53;5026139;28;20226;-53
2023/12/19 08:11:25;;;;;;;0.00;0.00;;;;;;;-0.47;100.00;146137.41;5023115;28;20226;-53
2023/12/19 08:13:52;;;;;;;0.00;0.00;;;;;;;-0.43;100.00;146146.06;5025653;28;20586;-54
2023/12/19 08:16:19;;;;;;;0.07;0.07;;;;;;;-0.28;100.00;146181.88;5023585;28;20265;-53
2023/12/19 08:18:49;;;;;;;0.00;0.00;;;;;;;-0.30;100.00;146179.41;5026136;28;20769;-55
2023/12/19 08:21:15;;;;;;;0.00;0.00;;;;;;;-0.31;100.00;146175.75;5023937;28;20249;-53
2023/12/19 08:23:42;;;;;;;0.00;0.00;;;;;;;-0.27;100.00;146184.38;5026506;28;20704;-55
2023/12/19 08:26:10;;;;;;;0.00;0.00;;;;;;;-0.21;100.00;146199.19;5022630;28;20223;-53
2023/12/19 08:28:37;;;;;;;0.00;0.00;;;;;;;-0.08;100.00;146230.13;5024093;28;20246;-54
2023/12/19 08:31:04;;;;;;;0.00;0.00;;;;;;;0.02;100.00;146253.59;5023769;28;20265;-53
2023/12/19 08:33:30;;;;;;;0.00;0.00;;;;;;;-0.09;100.00;146228.88;5025084;28;20231;-53
2023/12/19 08:35:57;;;;;;;0.00;0.00;;;;;;;-0.14;100.00;146215.28;5026653;28;20241;-55
2023/12/19 08:38:24;;;;;;;0.00;0.00;;;;;;;-0.12;100.00;146221.44;5023283;28;20220;-54
2023/12/19 08:40:50;;;;;;;0.00;0.00;;;;;;;-0.11;100.00;146222.69;5025639;28;20272;-55
2023/12/19 08:43:19;;;;;;;0.00;0.00;;;;;;;-0.12;100.00;146221.44;5023204;28;20235;-54
2023/12/19 08:45:46;;;;;;;0.00;0.00;;;;;;;-0.05;100.00;146237.53;5026350;28;20307;-54
2023/12/19 08:48:13;;;;;;;0.00;0.00;;;;;;;-0.03;100.00;146243.69;5023560;28;20223;-54
2023/12/19 08:50:39;;;;;;;0.00;0.00;;;;;;;0.01;100.00;146252.31;5026204;28;20245;-54
2023/12/19 08:53:06;;;;;;;0.00;0.00;;;;;;;-0.03;100.00;146243.69;5022779;28;20235;-54
2023/12/19 08:55:33;;;;;;;0.00;0.00;;;;;;;0.08;100.00;146269.63;4999402;28;20585;-56
2023/12/19 08:57:59;;;;;;;0.00;0.00;;;;;;;0.22;100.00;146301.78;5026236;28;20239;-55
2023/12/19 09:00:27;;;;;;;0.00;0.00;;;;;;;0.27;100.00;146315.41;5023137;28;20594;-55
2023/12/19 09:02:54;;;;;;;0.00;0.00;;;;;;;0.28;100.00;146317.88;5025758;28;20232;-55
2023/12/19 09:05:21;;;;;;;0.00;0.00;;;;;;;0.38;100.00;146341.34;5005294;28;20678;-56
2023/12/19 09:07:48;;;;;;;0.00;0.00;;;;;;;0.49;100.00;146366.06;5007909;28;20601;-54
2023/12/19 09:10:16;;;;;;;0.00;0.00;;;;;;;0.54;100.00;146378.44;5014229;28;20238;-55
2023/12/19 09:12:43;;;;;;;0.00;0.00;;;;;;;0.53;100.00;146377.19;5025644;28;20231;-55
2023/12/19 09:15:10;;;;;;;0.00;0.00;;;;;;;0.65;100.00;146404.41;5021235;28;20397;-55
2023/12/19 09:17:38;;;;;;;0.10;0.10;;;;;;;0.72;100.00;146422.97;5023211;28;20230;-54
2023/12/19 09:20:07;;;;;;;0.00;0.00;;;;;;;0.73;100.00;146425.44;5021011;28;20290;-53
2023/12/19 09:22:35;;;;;;;0.00;0.00;;;;;;;0.58;100.00;146389.56;5024173;28;20241;-55
2023/12/19 09:25:03;;;;;;;0.00;0.00;;;;;;;0.56;100.00;146383.38;5020502;28;20318;-55
2023/12/19 09:27:29;;;;;;;0.00;0.00;;;;;;;0.66;100.00;146406.88;5024602;28;20220;-54
2023/12/19 09:29:56;;;;;;;0.00;0.00;;;;;;;0.68;100.00;146413.06;5024357;28;20234;-55
2023/12/19 09:32:23;;;;;;;0.00;0.00;;;;;;;0.63;100.00;146399.44;5021615;28;20227;-53
2023/12/19 09:34:51;;;;;;;0.00;0.00;;;;;;;0.79;100.00;146439.03;5024478;28;20303;-54
2023/12/19 09:37:21;;;;;;;0.00;0.00;;;;;;;0.75;100.00;146429.13;5020328;28;20828;-53
2023/12/19 09:39:48;;;;;;;0.10;0.10;;;;;;;0.84;100.00;146450.19;5023662;28;20243;-53
2023/12/19 09:42:18;;;;;;;0.00;0.00;;;;;;;0.88;100.00;146461.28;5023517;28;20227;-53
2023/12/19 09:44:45;;;;;;;0.00;0.00;;;;;;;0.99;100.00;146486.03;5024860;28;20314;-53
2023/12/19 09:47:18;;;;;;;0.00;0.00;;;;;;;1.09;100.00;146510.78;5022379;28;20231;-52
2023/12/19 09:49:49;;;;;;;0.00;0.00;;;;;;;1.15;100.00;146524.38;5006891;28;20658;-54
2023/12/19 09:52:17;;;;;;;0.00;0.00;;;;;;;1.12;100.00;146516.94;5021544;28;20223;-54
2023/12/19 09:54:45;;;;;;;0.00;0.00;;;;;;;1.12;100.00;146516.94;5024492;28;20223;-56
2023/12/19 09:57:13;;;;;;;0.00;0.00;;;;;;;0.86;100.00;146455.13;5021968;28;20234;-53
2023/12/19 09:59:43;;;;;;;0.00;0.00;;;;;;;0.68;100.00;146411.81;5024927;28;20717;-54
2023/12/19 10:02:10;;;;;;;0.00;0.00;;;;;;;0.54;100.00;146378.44;5020057;28;20575;-53
2023/12/19 10:04:37;;;;;;;0.00;0.00;;;;;;;0.42;100.00;146350.03;5024625;28;20232;-53
2023/12/19 10:07:04;;;;;;;0.00;0.00;;;;;;;0.43;100.00;146353.72;5021121;28;20247;-55
2023/12/19 10:09:32;;;;;;;0.00;0.00;;;;;;;0.40;100.00;146345.06;5023705;28;20923;-53
2023/12/19 10:12:04;;;;;;;0.00;0.00;;;;;;;0.34;100.00;146331.44;5023807;28;20238;-53
2023/12/19 10:14:32;;;;;;;0.00;0.00;;;;;;;0.32;100.00;146325.28;5021234;28;20224;-53
2023/12/19 10:17:00;;;;;;;0.00;0.00;;;;;;;0.33;100.00;146328.97;5024249;28;20227;-53
2023/12/19 10:19:28;;;;;;;0.00;0.00;;;;;;;0.22;100.00;146303.03;5020462;28;20246;-53
2023/12/19 10:22:05;;;;;;;0.00;0.00;;;;;;;0.23;100.00;146305.50;5024384;28;20227;-54
2023/12/19 10:24:34;;;;;;;0.00;0.00;;;;;;;0.25;100.00;146310.47;5022326;28;20246;-53
2023/12/19 10:27:01;;;;;;;0.00;0.00;;;;;;;0.28;100.00;146317.88;5024394;28;20224;-55
2023/12/19 10:29:36;;;;;;;0.00;0.00;;;;;;;0.35;100.00;146333.94;5021104;28;20310;-53
2023/12/19 10:32:13;;;;;;;0.00;0.00;;;;;;;0.33;100.00;146328.97;5021360;28;20242;-53
2023/12/19 10:34:40;;;;;;;0.00;0.00;;;;;;;0.27;100.00;146315.41;5023661;28;20230;-53
2023/12/19 10:37:10;;;;;;;0.00;0.00;;;;;;;0.31;100.00;146324.03;5021112;28;20219;-53
2023/12/19 10:39:38;;;;;;;0.00;0.00;;;;;;;0.39;100.00;146343.81;5023812;28;20231;-53
2023/12/19 10:42:05;;;;;;;0.00;0.00;;;;;;;0.49;100.00;146367.34;5021737;28;20672;-53
2023/12/19 10:44:34;;;;;;;0.00;0.00;;;;;;;0.52;100.00;146373.50;5028131;28;20223;-52
2023/12/19 10:47:03;;;;;;;0.00;0.00;;;;;;;0.53;100.00;146375.97;5028430;28;20235;-53
2023/12/19 10:49:32;;;;;;;0.00;0.00;;;;;;;0.62;100.00;146396.97;5025884;28;20563;-53
2023/12/19 10:52:05;;;;;;;0.00;0.00;;;;;;;0.68;100.00;146413.06;5028062;28;20226;-53
2023/12/19 10:54:35;;;;;;;0.00;0.00;;;;;;;0.78;100.00;146436.56;5025064;28;20223;-52
2023/12/19 10:57:06;;;;;;;0.00;0.00;;;;;;;0.84;100.00;146451.41;5025572;28;20223;-55
2023/12/19 10:59:45;;;;;;;0.00;0.00;;;;;;;0.92;100.00;146469.97;5027769;28;20226;-53
2023/12/19 11:02:22;;;;;;;0.00;0.00;;;;;;;1.20;100.00;146535.53;5024558;28;20289;-53
2023/12/19 11:04:57;;;;;;;0.00;0.00;;;;;;;1.52;100.00;146612.25;5026984;28;20227;-53
2023/12/19 11:07:27;;;;;;;0.00;0.00;;;;;;;1.72;100.00;146660.50;5024337;28;20224;-53
2023/12/19 11:10:00;;;;;;;0.00;0.00;;;;;;;1.84;100.00;146690.22;5027627;28;20211;-53
2023/12/19 11:12:28;;;;;;;0.00;0.00;;;;;;;2.11;100.00;146754.59;5021180;28;20715;-53
2023/12/19 11:14:55;;;;;;;0.00;0.00;;;;;;;2.33;100.00;146807.81;5025416;28;20224;-53
2023/12/19 11:17:26;;;;;;;0.00;0.00;;;;;;;2.53;100.00;146854.88;5023784;28;20551;-53
2023/12/19 11:20:00;;;;;;;0.00;0.00;;;;;;;2.49;98.48;146844.97;5009204;28;20664;-55
2023/12/19 11:22:33;;;;;;;0.00;0.00;;;;;;;2.59;99.53;146868.47;5024889;28;20227;-55